Ship Status Report: callsign BR3037

sailwx.info

Track history (hours):
 
Tides and Currents Weather Stations Pressure Air Temp Water Temp Dewpoint Dewpoint Depression Visibility Wind Speed Wind Dir Waves Ship Positions

Oceanographic research ship ()

Last reported at 2019-Apr-17 08:49 UTC. Time now 2019-Apr-18 21:08 UTC.
Position N 22°37' E 120°15'.

Length 39 m.

Type: Other ship. MMSI: 416926000.

Date/timePositionNaut miles runAvg speedWind from/ knotsBaromVisibWave heightAir tempDewpointWater temp
2019-Apr-17 08:49N 22°37' E 120°15'  
2019-Apr-14 16:31N 22°36' E 120°17'3 5.1
2019-Apr-14 16:00N 22°37' E 120°15'0 0.0
2019-Apr-13 01:53N 22°37' E 120°15'3 2.2
2019-Apr-13 00:43N 22°36' E 120°17'0 0.0
2019-Apr-11 23:16N 22°36' E 120°17'0 1.4
2019-Apr-11 23:00N 22°36' E 120°17'5 0.3
2019-Apr-11 04:14N 22°38' E 120°12'3 2.2
2019-Apr-11 02:49N 22°37' E 120°15'2 5.8
2019-Apr-11 02:30N 22°37' E 120°17'1 0.0
2019-Apr-10 08:21N 22°36' E 120°17'  
2019-Apr-08 04:05N 22°37' E 120°15'110.8
2019-Apr-08 04:00N 22°37' E 120°16'2 3.3
2019-Apr-08 03:27N 22°36' E 120°17'0 0.0
2019-Apr-08 02:54N 22°36' E 120°17'0 0.0
2019-Apr-08 02:23N 22°36' E 120°17'0 0.0
2019-Apr-08 01:53N 22°36' E 120°17'  
Track history (hours):
 
Tides and Currents Weather Stations Pressure Air Temp Water Temp Dewpoint Dewpoint Depression Visibility Wind Speed Wind Dir Waves Ship Positions

Oceanographic research ship ()

Last reported at 2019-Apr-17 08:49 UTC. Time now 2019-Apr-18 21:08 UTC.
Position N 22°37' E 120°15'.

Length 39 m.

Type: Other ship. MMSI: 416926000.

Date/timePositionNaut miles runAvg speedWind from/ knotsBaromVisibWave heightAir tempDewpointWater temp
2019-Apr-17 08:49N 22°37' E 120°15'  
2019-Apr-14 16:31N 22°36' E 120°17'3 5.1
2019-Apr-14 16:00N 22°37' E 120°15'0 0.0
2019-Apr-13 01:53N 22°37' E 120°15'3 2.2
2019-Apr-13 00:43N 22°36' E 120°17'0 0.0
2019-Apr-11 23:16N 22°36' E 120°17'0 1.4
2019-Apr-11 23:00N 22°36' E 120°17'5 0.3
2019-Apr-11 04:14N 22°38' E 120°12'3 2.2
2019-Apr-11 02:49N 22°37' E 120°15'2 5.8
2019-Apr-11 02:30N 22°37' E 120°17'1 0.0
2019-Apr-10 08:21N 22°36' E 120°17'  
2019-Apr-08 04:05N 22°37' E 120°15'110.8
2019-Apr-08 04:00N 22°37' E 120°16'2 3.3
2019-Apr-08 03:27N 22°36' E 120°17'0 0.0
2019-Apr-08 02:54N 22°36' E 120°17'0 0.0
2019-Apr-08 02:23N 22°36' E 120°17'0 0.0
2019-Apr-08 01:53N 22°36' E 120°17'  

Dump ship's entire track history